createdAt,value
2022-12-25T00:02:27.246Z,13.82
2022-12-25T00:04:54.206Z,14.23
2022-12-25T00:07:21.057Z,16.00
2022-12-25T00:09:47.908Z,13.20
2022-12-25T00:12:14.731Z,15.95
2022-12-25T00:14:41.668Z,13.88
2022-12-25T00:17:08.562Z,12.77
2022-12-25T00:19:35.393Z,12.85
2022-12-25T00:22:02.288Z,13.65
2022-12-25T00:24:29.205Z,13.70
2022-12-25T00:26:56.076Z,14.68
2022-12-25T00:29:23.266Z,14.25
2022-12-25T00:31:50.086Z,12.20
2022-12-25T00:34:16.988Z,12.02
2022-12-25T00:36:43.955Z,13.77
2022-12-25T00:39:10.860Z,12.93
2022-12-25T00:41:56.330Z,12.75
2022-12-25T00:44:23.255Z,13.88
2022-12-25T00:46:50.179Z,12.82
2022-12-25T00:49:17.122Z,12.85
2022-12-25T00:51:44.153Z,12.68
2022-12-25T00:54:11.039Z,12.32
2022-12-25T00:56:37.896Z,12.85
2022-12-25T00:59:04.752Z,13.32
2022-12-25T01:01:31.788Z,12.07
2022-12-25T01:03:59.129Z,12.15
2022-12-25T01:06:26.848Z,13.48
2022-12-25T01:09:12.390Z,11.48
2022-12-25T01:11:39.330Z,11.90
2022-12-25T01:14:06.593Z,15.48
2022-12-25T01:16:33.566Z,11.73
2022-12-25T01:19:00.513Z,11.70
2022-12-25T01:21:28.062Z,11.48
2022-12-25T01:23:55.064Z,12.57
2022-12-25T01:26:23.753Z,11.30
2022-12-25T01:28:51.725Z,11.67
2022-12-25T01:31:21.468Z,13.52
2022-12-25T01:33:49.208Z,11.73
2022-12-25T01:36:22.176Z,11.27
2022-12-25T01:38:49.699Z,11.68
2022-12-25T01:41:18.582Z,13.98
2022-12-25T01:44:14.538Z,11.45
2022-12-25T01:46:41.903Z,11.23
2022-12-25T01:49:29.562Z,16.20
2022-12-25T01:52:01.671Z,12.73
2022-12-25T01:54:51.552Z,10.85
2022-12-25T01:57:39.283Z,12.30
2022-12-25T02:00:08.519Z,11.80
2022-12-25T02:02:36.002Z,11.15
2022-12-25T02:05:30.662Z,16.27
2022-12-25T02:08:01.953Z,12.80
2022-12-25T02:10:29.123Z,13.27
2022-12-25T02:12:56.243Z,12.95
2022-12-25T02:15:30.022Z,13.50
2022-12-25T02:18:02.664Z,14.20
2022-12-25T02:21:00.713Z,11.00
2022-12-25T02:23:49.095Z,10.65
2022-12-25T02:26:21.056Z,10.20
2022-12-25T02:29:28.460Z,14.32
2022-12-25T02:32:07.903Z,10.48
2022-12-25T02:34:44.255Z,10.80
2022-12-25T02:37:14.852Z,10.85
2022-12-25T02:39:58.567Z,12.13
2022-12-25T02:42:48.168Z,10.13
2022-12-25T02:45:38.834Z,14.07
2022-12-25T02:48:25.297Z,10.77
2022-12-25T02:51:12.456Z,11.02
2022-12-25T02:53:59.674Z,15.00
2022-12-25T02:56:48.095Z,11.07
2022-12-25T02:59:35.531Z,14.98
2022-12-25T03:02:23.106Z,11.85
2022-12-25T03:05:11.427Z,12.20
2022-12-25T03:07:41.071Z,10.98
2022-12-25T03:10:29.426Z,13.32
2022-12-25T03:13:16.353Z,10.93
2022-12-25T03:16:01.944Z,11.77
2022-12-25T03:18:31.136Z,12.30
2022-12-25T03:21:17.948Z,12.55
2022-12-25T03:24:08.431Z,12.13
2022-12-25T03:26:53.881Z,11.90
2022-12-25T03:29:44.374Z,13.27
2022-12-25T03:32:17.170Z,10.88
2022-12-25T03:35:16.452Z,12.60
2022-12-25T03:38:10.545Z,17.92
2022-12-25T03:40:59.001Z,13.70
2022-12-25T03:44:19.190Z,12.65
2022-12-25T03:47:11.099Z,11.07
2022-12-25T03:50:05.017Z,14.23
2022-12-25T03:52:52.023Z,10.43
2022-12-25T03:55:38.467Z,12.70
2022-12-25T03:58:24.301Z,11.77
2022-12-25T04:01:09.540Z,14.85
2022-12-25T04:03:55.077Z,15.68
2022-12-25T04:06:40.576Z,13.93
2022-12-25T04:09:25.956Z,16.98
2022-12-25T04:12:11.410Z,15.00
2022-12-25T04:14:56.751Z,10.23
2022-12-25T04:17:42.046Z,12.70
2022-12-25T04:20:27.929Z,11.38
2022-12-25T04:23:13.192Z,12.23
2022-12-25T04:25:58.795Z,13.73
2022-12-25T04:28:43.999Z,13.18
2022-12-25T04:31:29.530Z,15.55
2022-12-25T04:34:14.828Z,15.43
2022-12-25T04:36:41.828Z,12.65
2022-12-25T04:39:10.124Z,16.20
2022-12-25T04:41:37.032Z,16.48
2022-12-25T04:44:04.096Z,12.55
2022-12-25T04:46:31.058Z,16.55
2022-12-25T04:48:57.963Z,16.00
2022-12-25T04:51:26.025Z,17.98
2022-12-25T04:53:53.600Z,14.05
2022-12-25T04:56:21.517Z,16.60
2022-12-25T04:58:48.857Z,14.57
2022-12-25T05:01:16.682Z,15.27
2022-12-25T05:03:43.801Z,15.50
2022-12-25T05:06:10.733Z,13.18
2022-12-25T05:08:37.672Z,15.10
2022-12-25T05:11:10.779Z,14.27
2022-12-25T05:13:38.640Z,16.45
2022-12-25T05:16:12.805Z,15.38
2022-12-25T05:18:39.848Z,14.45
2022-12-25T05:21:07.872Z,16.42
2022-12-25T05:23:34.908Z,16.20
2022-12-25T05:26:06.560Z,16.08
2022-12-25T05:28:36.787Z,15.63
2022-12-25T05:31:03.705Z,13.32
2022-12-25T05:33:30.579Z,18.40
2022-12-25T05:35:57.437Z,18.35
2022-12-25T05:38:24.280Z,19.58
2022-12-25T05:40:51.749Z,15.68
2022-12-25T05:43:19.638Z,17.88
2022-12-25T05:45:46.513Z,21.48
2022-12-25T05:48:13.561Z,17.17
2022-12-25T05:50:40.432Z,20.20
2022-12-25T05:53:09.538Z,11.40
2022-12-25T05:55:37.762Z,11.68
2022-12-25T05:58:06.243Z,16.75
2022-12-25T06:00:33.623Z,12.07
2022-12-25T06:03:00.926Z,17.85
2022-12-25T06:05:27.910Z,18.45
2022-12-25T06:07:54.774Z,12.20
2022-12-25T06:10:21.734Z,11.50
2022-12-25T06:12:48.838Z,11.43
2022-12-25T06:15:15.937Z,19.20
2022-12-25T06:17:42.755Z,19.42
2022-12-25T06:20:10.248Z,12.95
2022-12-25T06:22:37.154Z,11.95
2022-12-25T06:25:04.274Z,15.68
2022-12-25T06:27:31.163Z,16.88
2022-12-25T06:29:58.007Z,15.55
2022-12-25T06:32:24.831Z,14.10
2022-12-25T06:34:51.838Z,13.35
2022-12-25T06:37:18.793Z,15.85
2022-12-25T06:39:47.510Z,12.95
2022-12-25T06:42:14.319Z,16.85
2022-12-25T06:44:41.132Z,10.98
2022-12-25T06:47:07.958Z,11.85
2022-12-25T06:49:34.785Z,16.10
2022-12-25T06:52:01.695Z,14.13
2022-12-25T06:54:28.610Z,17.83
2022-12-25T06:56:55.488Z,15.48
2022-12-25T06:59:22.417Z,16.98
2022-12-25T07:01:50.403Z,16.45
2022-12-25T07:04:23.388Z,14.18
2022-12-25T07:06:50.229Z,13.35
2022-12-25T07:09:17.284Z,13.00
2022-12-25T07:11:44.258Z,14.05
2022-12-25T07:14:24.533Z,10.07
2022-12-25T07:16:52.079Z,16.55
2022-12-25T07:19:19.373Z,15.77
2022-12-25T07:21:46.336Z,17.10
2022-12-25T07:24:20.833Z,16.33
2022-12-25T07:26:47.866Z,12.82
2022-12-25T07:29:14.780Z,13.75
2022-12-25T07:31:41.792Z,15.43
2022-12-25T07:34:08.951Z,11.07
2022-12-25T07:36:35.829Z,13.40
2022-12-25T07:39:02.755Z,10.90
2022-12-25T07:41:29.721Z,13.57
2022-12-25T07:43:56.550Z,10.63
2022-12-25T07:46:23.589Z,13.63
2022-12-25T07:48:50.512Z,14.02
2022-12-25T07:51:17.403Z,14.52
2022-12-25T07:53:44.262Z,15.07
2022-12-25T07:56:14.370Z,13.43
2022-12-25T07:58:41.838Z,15.77
2022-12-25T08:01:19.532Z,16.15
2022-12-25T08:03:58.279Z,16.58
2022-12-25T08:06:29.926Z,13.90
2022-12-25T08:09:12.770Z,16.30
2022-12-25T08:11:40.166Z,15.75
2022-12-25T08:14:08.610Z,11.00
2022-12-25T08:16:36.125Z,16.38
2022-12-25T08:19:03.172Z,15.35
2022-12-25T08:21:30.024Z,15.55
2022-12-25T08:23:57.238Z,12.90
2022-12-25T08:26:24.219Z,15.40
2022-12-25T08:28:51.234Z,12.60
2022-12-25T08:31:29.756Z,12.20
2022-12-25T08:33:58.620Z,13.98
2022-12-25T08:36:25.723Z,15.93
2022-12-25T08:38:57.029Z,15.13
2022-12-25T08:41:28.073Z,11.52
2022-12-25T08:43:55.105Z,14.23
2022-12-25T08:46:22.051Z,15.52
2022-12-25T08:48:50.211Z,14.57
2022-12-25T08:51:21.101Z,13.77
2022-12-25T08:53:50.447Z,14.30
2022-12-25T08:56:19.059Z,13.52
2022-12-25T08:58:46.226Z,12.60
2022-12-25T09:01:13.617Z,13.93
2022-12-25T09:03:40.752Z,13.10
2022-12-25T09:06:13.299Z,13.45
2022-12-25T09:08:47.741Z,14.23
2022-12-25T09:11:17.156Z,12.10
2022-12-25T09:13:44.137Z,11.73
2022-12-25T09:16:13.623Z,10.40
2022-12-25T09:21:10.771Z,11.77
2022-12-25T09:23:37.897Z,12.85
2022-12-25T09:26:07.414Z,11.60
2022-12-25T09:31:02.319Z,11.45
2022-12-25T09:33:29.271Z,9.85
2022-12-25T09:35:57.817Z,10.93
2022-12-25T09:38:25.381Z,12.87
2022-12-25T09:41:01.794Z,9.70
2022-12-25T09:43:31.659Z,8.35
2022-12-25T09:46:00.334Z,12.48
2022-12-25T09:48:30.607Z,14.63
2022-12-25T09:50:59.990Z,9.20
2022-12-25T09:53:31.103Z,9.93
2022-12-25T09:56:10.879Z,11.32
2022-12-25T09:58:38.147Z,11.82
2022-12-25T10:01:33.370Z,12.65
2022-12-25T10:04:39.194Z,13.48
2022-12-25T10:07:43.401Z,12.32
2022-12-25T10:10:22.580Z,11.32
2022-12-25T10:13:01.504Z,11.35
2022-12-25T10:15:58.513Z,12.48
2022-12-25T10:18:35.228Z,10.98
2022-12-25T10:21:10.955Z,12.27
2022-12-25T10:23:42.863Z,11.77
2022-12-25T10:26:22.225Z,11.57
2022-12-25T10:29:14.517Z,12.20
2022-12-25T10:31:45.204Z,10.15
2022-12-25T10:34:14.003Z,11.90
2022-12-25T10:36:44.581Z,11.55
2022-12-25T10:39:23.813Z,9.23
2022-12-25T10:42:09.462Z,10.80
2022-12-25T10:44:36.438Z,10.43
2022-12-25T10:47:04.708Z,11.88
2022-12-25T10:49:38.425Z,11.52
2022-12-25T10:52:20.070Z,11.65
2022-12-25T10:54:47.009Z,11.77
2022-12-25T10:57:19.804Z,10.73
2022-12-25T10:59:52.449Z,10.68
2022-12-25T11:02:45.420Z,9.75
2022-12-25T11:05:23.346Z,10.82
2022-12-25T11:07:56.161Z,11.65
2022-12-25T11:10:26.065Z,12.48
2022-12-25T11:12:54.029Z,9.00
2022-12-25T11:15:36.733Z,11.55
2022-12-25T11:18:25.072Z,12.10
2022-12-25T11:21:02.282Z,14.52
2022-12-25T11:23:31.269Z,15.70
2022-12-25T11:26:06.964Z,11.48
2022-12-25T11:28:36.248Z,10.18
2022-12-25T11:31:08.577Z,10.88
2022-12-25T11:33:42.141Z,10.20
2022-12-25T11:36:32.608Z,11.98
2022-12-25T11:39:16.325Z,9.85
2022-12-25T11:41:44.122Z,11.98
2022-12-25T11:44:43.992Z,12.27
2022-12-25T11:47:17.729Z,9.27
2022-12-25T11:49:54.905Z,10.13
2022-12-25T11:52:25.967Z,11.63
2022-12-25T11:55:01.997Z,10.27
2022-12-25T11:57:31.255Z,9.02
2022-12-25T12:00:06.540Z,11.30
2022-12-25T12:02:53.748Z,10.30
2022-12-25T12:05:29.558Z,9.00
2022-12-25T12:08:04.747Z,10.07
2022-12-25T12:10:42.485Z,10.68
2022-12-25T12:13:28.708Z,11.68
2022-12-25T12:15:55.791Z,11.30
2022-12-25T12:18:30.351Z,9.70
2022-12-25T12:20:58.712Z,10.65
2022-12-25T12:23:26.900Z,11.90
2022-12-25T12:25:54.031Z,10.07
2022-12-25T12:28:24.981Z,9.68
2022-12-25T12:31:07.142Z,10.40
2022-12-25T12:33:39.186Z,8.82
2022-12-25T12:36:07.144Z,8.23
2022-12-25T12:38:35.351Z,9.27
2022-12-25T12:41:05.583Z,9.57
2022-12-25T12:43:39.776Z,8.82
2022-12-25T12:46:06.802Z,10.43
2022-12-25T12:48:45.683Z,11.00
2022-12-25T12:51:29.114Z,9.95
2022-12-25T12:54:21.007Z,11.45
2022-12-25T12:57:05.203Z,11.60
2022-12-25T12:59:44.703Z,10.82
2022-12-25T13:02:49.201Z,8.80
2022-12-25T13:05:20.285Z,10.88
2022-12-25T13:08:02.299Z,13.63
2022-12-25T13:10:44.137Z,15.65
2022-12-25T13:13:30.435Z,8.65
2022-12-25T13:15:58.055Z,17.10
2022-12-25T13:18:24.963Z,35.70
2022-12-25T13:20:59.642Z,26.48
2022-12-25T13:23:37.504Z,30.27
2022-12-25T13:26:06.019Z,16.77
2022-12-25T13:28:36.940Z,13.43
2022-12-25T13:31:19.172Z,11.10
2022-12-25T13:33:50.508Z,14.48
2022-12-25T13:36:17.775Z,16.80
2022-12-25T13:38:50.760Z,12.13
2022-12-25T13:41:41.831Z,13.30
2022-12-25T13:46:41.215Z,14.30
2022-12-25T13:49:16.141Z,13.15
2022-12-25T13:51:43.294Z,13.68
2022-12-25T13:54:13.155Z,13.38
2022-12-25T13:56:52.095Z,16.25
2022-12-25T13:59:24.668Z,15.68
2022-12-25T14:01:54.072Z,12.80
2022-12-25T14:04:23.955Z,12.70
2022-12-25T14:06:52.348Z,12.77
2022-12-25T14:09:20.103Z,10.68
2022-12-25T14:11:51.211Z,12.18
2022-12-25T14:14:26.009Z,12.95
2022-12-25T14:16:56.908Z,14.35
2022-12-25T14:19:32.389Z,12.23
2022-12-25T14:22:01.078Z,10.85
2022-12-25T14:24:30.017Z,13.40
2022-12-25T14:26:59.340Z,14.50
2022-12-25T14:29:30.024Z,12.95
2022-12-25T14:31:58.833Z,11.90
2022-12-25T14:34:34.221Z,12.63
2022-12-25T14:37:03.424Z,13.07
2022-12-25T14:39:30.308Z,16.10
2022-12-25T14:41:57.880Z,11.45
2022-12-25T14:44:40.104Z,16.77
2022-12-25T14:47:18.692Z,11.75
2022-12-25T14:49:46.391Z,18.02
2022-12-25T14:52:29.822Z,20.02
2022-12-25T14:55:01.201Z,11.25
2022-12-25T14:57:35.986Z,12.80
2022-12-25T15:00:07.981Z,17.58
2022-12-25T15:02:42.733Z,10.05
2022-12-25T15:05:29.570Z,13.70
2022-12-25T15:08:11.648Z,10.02
2022-12-25T15:13:28.331Z,12.50
2022-12-25T15:16:08.686Z,14.02
2022-12-25T15:18:41.415Z,18.92
2022-12-25T15:21:24.690Z,18.25
2022-12-25T15:23:53.222Z,20.98
2022-12-25T15:26:20.134Z,17.90
2022-12-25T15:28:47.048Z,19.83
2022-12-25T15:31:29.223Z,16.02
2022-12-25T15:33:59.520Z,11.55
2022-12-25T15:36:27.572Z,12.38
2022-12-25T15:38:55.001Z,15.88
2022-12-25T15:41:50.009Z,21.00
2022-12-25T15:44:17.702Z,12.52
2022-12-25T15:46:46.035Z,22.42
2022-12-25T15:49:14.358Z,16.80
2022-12-25T15:51:42.373Z,22.60
2022-12-25T15:54:09.913Z,10.93
2022-12-25T15:56:44.525Z,15.48
2022-12-25T15:59:16.896Z,14.07
2022-12-25T16:01:50.768Z,18.42
2022-12-25T16:04:18.361Z,11.55
2022-12-25T16:06:45.528Z,21.02
2022-12-25T16:09:13.532Z,10.32
2022-12-25T16:11:40.744Z,17.50
2022-12-25T16:14:08.059Z,11.60
2022-12-25T16:16:35.334Z,21.60
2022-12-25T16:19:02.534Z,13.40
2022-12-25T16:21:51.556Z,23.67
2022-12-25T16:24:18.378Z,23.42
2022-12-25T16:26:45.272Z,13.70
2022-12-25T16:29:12.154Z,11.02
2022-12-25T16:31:39.998Z,12.35
2022-12-25T16:34:07.702Z,13.25
2022-12-25T16:36:34.952Z,19.65
2022-12-25T16:39:02.684Z,18.17
2022-12-25T16:41:29.520Z,20.70
2022-12-25T16:43:56.347Z,11.25
2022-12-25T16:46:23.633Z,10.48
2022-12-25T16:48:50.721Z,21.70
2022-12-25T16:51:20.304Z,22.60
2022-12-25T16:53:47.983Z,12.73
2022-12-25T16:56:17.710Z,11.45
2022-12-25T16:58:48.745Z,9.88
2022-12-25T17:01:18.320Z,23.75
2022-12-25T17:03:46.113Z,13.88
2022-12-25T17:06:24.857Z,22.42
2022-12-25T17:08:53.062Z,13.20
2022-12-25T17:11:24.293Z,11.90
2022-12-25T17:13:51.153Z,13.75
2022-12-25T17:16:27.633Z,10.93
2022-12-25T17:18:56.054Z,22.08
2022-12-25T17:21:26.528Z,14.60
2022-12-25T17:23:59.615Z,18.55
2022-12-25T17:26:29.135Z,21.17
2022-12-25T17:28:56.389Z,11.20
2022-12-25T17:31:23.571Z,10.98
2022-12-25T17:33:50.680Z,10.77
2022-12-25T17:36:19.850Z,10.90
2022-12-25T17:38:47.631Z,10.57
2022-12-25T17:41:16.238Z,10.57
2022-12-25T17:43:45.759Z,17.50
2022-12-25T17:46:19.078Z,17.40
2022-12-25T17:48:46.578Z,10.63
2022-12-25T17:58:44.357Z,20.60
2022-12-25T18:01:16.630Z,13.63
2022-12-25T18:04:02.111Z,30.58
2022-12-25T18:06:29.715Z,21.35
2022-12-25T18:08:57.629Z,23.10
2022-12-25T18:11:33.011Z,12.55
2022-12-25T18:14:05.128Z,33.80
2022-12-25T18:16:34.960Z,34.47
2022-12-25T18:19:02.329Z,37.13
2022-12-25T18:21:29.685Z,39.58
2022-12-25T18:23:56.680Z,33.58
2022-12-25T18:26:25.042Z,39.10
2022-12-25T18:28:51.993Z,39.92
2022-12-25T18:31:30.331Z,35.05
2022-12-25T18:33:59.783Z,36.65
2022-12-25T18:36:27.803Z,36.53
2022-12-25T18:38:55.457Z,35.75
2022-12-25T18:41:22.833Z,31.15
2022-12-25T18:43:52.779Z,16.05
2022-12-25T18:46:24.714Z,45.28
2022-12-25T18:48:52.927Z,46.97
2022-12-25T18:51:19.871Z,21.48
2022-12-25T18:53:46.825Z,15.88
2022-12-25T18:56:17.211Z,25.98
2022-12-25T18:58:44.875Z,23.50
2022-12-25T19:01:20.890Z,33.80
2022-12-25T19:03:49.240Z,19.85
2022-12-25T19:06:26.993Z,16.23
2022-12-25T19:08:55.663Z,18.00
2022-12-25T19:11:23.060Z,18.75
2022-12-25T19:13:49.934Z,38.47
2022-12-25T19:16:16.934Z,18.75
2022-12-25T19:18:43.992Z,17.40
2022-12-25T19:21:11.201Z,41.33
2022-12-25T19:23:38.627Z,27.13
2022-12-25T19:26:07.401Z,23.42
2022-12-25T19:28:35.020Z,36.38
2022-12-25T19:31:02.344Z,18.02
2022-12-25T19:33:31.639Z,33.67
2022-12-25T19:36:03.588Z,17.85
2022-12-25T19:38:30.579Z,32.55
2022-12-25T19:41:00.725Z,37.97
2022-12-25T19:43:32.550Z,31.60
2022-12-25T19:46:00.405Z,32.25
2022-12-25T19:48:28.107Z,27.08
2022-12-25T19:50:55.043Z,48.13
2022-12-25T19:53:23.821Z,32.60
2022-12-25T19:55:54.448Z,42.83
2022-12-25T19:58:22.711Z,22.92
2022-12-25T20:01:00.349Z,27.40
2022-12-25T20:03:28.208Z,18.95
2022-12-25T20:05:55.171Z,23.42
2022-12-25T20:08:22.355Z,26.10
2022-12-25T20:10:49.615Z,33.38
2022-12-25T20:13:17.154Z,73.47
2022-12-25T20:15:44.035Z,86.40
2022-12-25T20:18:10.852Z,65.38
2022-12-25T20:20:37.893Z,74.93
2022-12-25T20:23:05.017Z,55.55
2022-12-25T20:25:31.981Z,23.55
2022-12-25T20:27:58.859Z,30.65
2022-12-25T20:30:25.876Z,34.60
2022-12-25T20:32:52.722Z,45.53
2022-12-25T20:35:19.661Z,61.42
2022-12-25T20:37:46.585Z,58.88
2022-12-25T20:40:13.670Z,46.97
2022-12-25T20:42:40.527Z,37.33
2022-12-25T20:45:07.770Z,36.35
2022-12-25T20:47:35.206Z,84.28
2022-12-25T20:50:02.235Z,42.92
2022-12-25T20:52:29.113Z,65.40
2022-12-25T20:54:55.948Z,43.65
2022-12-25T20:57:22.955Z,54.70
2022-12-25T20:59:49.946Z,20.98
2022-12-25T21:02:33.341Z,42.67
2022-12-25T21:05:02.305Z,93.18
2022-12-25T21:07:29.208Z,46.47
2022-12-25T21:09:56.127Z,73.57
2022-12-25T21:12:23.013Z,85.45
2022-12-25T21:14:49.874Z,81.78
2022-12-25T21:17:16.813Z,48.97
2022-12-25T21:19:43.767Z,57.58
2022-12-25T21:22:10.660Z,22.02
2022-12-25T21:24:37.538Z,62.65
2022-12-25T21:27:04.484Z,45.80
2022-12-25T21:29:31.473Z,18.85
2022-12-25T21:32:16.871Z,24.63
2022-12-25T21:34:43.703Z,59.97
2022-12-25T21:37:10.606Z,56.83
2022-12-25T21:39:37.574Z,32.33
2022-12-25T21:42:04.701Z,26.10
2022-12-25T21:44:36.096Z,37.22
2022-12-25T21:47:03.311Z,42.63
2022-12-25T21:49:48.727Z,17.92
2022-12-25T21:52:15.605Z,21.02
2022-12-25T21:54:42.677Z,23.38
2022-12-25T21:57:09.572Z,17.40
2022-12-25T21:59:36.553Z,17.35
2022-12-25T22:02:11.460Z,17.25
2022-12-25T22:04:38.973Z,36.22
2022-12-25T22:07:17.960Z,36.28
2022-12-25T22:09:47.139Z,31.67
2022-12-25T22:12:34.789Z,35.65
2022-12-25T22:15:06.110Z,29.50
2022-12-25T22:17:57.719Z,28.48
2022-12-25T22:20:34.592Z,18.80
2022-12-25T22:23:02.107Z,35.72
2022-12-25T22:25:29.089Z,29.88
2022-12-25T22:27:56.015Z,32.05
2022-12-25T22:30:27.911Z,27.05
2022-12-25T22:32:55.494Z,36.17
2022-12-25T22:35:22.962Z,17.20
2022-12-25T22:37:50.103Z,33.63
2022-12-25T22:40:19.761Z,32.60
2022-12-25T22:42:47.042Z,35.90
2022-12-25T22:45:14.348Z,37.13
2022-12-25T22:47:41.876Z,36.10
2022-12-25T22:50:09.842Z,30.30
2022-12-25T22:52:37.239Z,29.00
2022-12-25T22:55:05.650Z,32.55
2022-12-25T22:57:32.494Z,33.17
2022-12-25T22:59:59.579Z,31.15
2022-12-25T23:02:26.861Z,34.00
2022-12-25T23:04:53.998Z,38.15
2022-12-25T23:07:20.986Z,28.75
2022-12-25T23:09:47.893Z,37.15
2022-12-25T23:12:33.314Z,27.65
2022-12-25T23:15:00.495Z,35.03
2022-12-25T23:17:46.074Z,38.28
2022-12-25T23:20:33.341Z,30.30
2022-12-25T23:23:18.773Z,35.75
2022-12-25T23:26:04.559Z,39.55
2022-12-25T23:28:49.817Z,38.30
2022-12-25T23:31:16.849Z,36.90
2022-12-25T23:33:43.947Z,25.48
2022-12-25T23:36:10.925Z,26.27
2022-12-25T23:38:37.820Z,27.77
2022-12-25T23:41:04.723Z,35.60
2022-12-25T23:43:31.850Z,24.05
2022-12-25T23:45:58.690Z,31.67
2022-12-25T23:48:25.602Z,29.45
2022-12-25T23:50:52.511Z,19.90
2022-12-25T23:53:19.424Z,19.08
2022-12-25T23:55:51.528Z,21.83
2022-12-25T23:58:22.023Z,34.05
